Time;durP1;ratioP1;P1;durP2;ratioP2;P2;SDS_P1;SDS_P2;PMS_P1;PMS_P2;Temp;Humidity;BMP_temperature;BMP_pressure;BME280_temperature;BME280_humidity;BME280_pressure;Samples;Min_cycle;Max_cycle;Signal;HPM_P1;HPM_P2
2022/07/15 00:02:24;;;;;;;705.87;664.20;;;19.50;5.70;;;;;;5012343;28;20553;-67
2022/07/15 00:04:49;;;;;;;772.10;719.97;;;19.20;4.90;;;;;;5012697;28;20847;-67
2022/07/15 00:07:16;;;;;;;605.33;570.73;;;19.30;5.20;;;;;;5012225;28;20180;-67
2022/07/15 00:12:26;;;;;;;1045.33;959.37;;;19.00;5.40;;;;;;5012664;28;20418;-66
2022/07/15 00:14:52;;;;;;;647.60;610.80;;;19.00;5.40;;;;;;5012376;28;20944;-67
2022/07/15 00:17:17;;;;;;;730.40;680.80;;;19.00;5.10;;;;;;5012380;28;20180;-67
2022/07/15 00:19:43;;;;;;;797.93;739.90;;;19.00;5.00;;;;;;5011995;28;20200;-67
2022/07/15 00:22:09;;;;;;;816.57;760.83;;;19.10;4.30;;;;;;5013162;28;20743;-68
2022/07/15 00:24:34;;;;;;;997.97;921.63;;;19.10;4.30;;;;;;5012138;28;20179;-67
2022/07/15 00:27:02;;;;;;;642.87;601.93;;;19.10;4.40;;;;;;5012195;28;20426;-67
2022/07/15 00:29:28;;;;;;;891.87;824.93;;;19.10;3.80;;;;;;5012442;28;20172;-67
2022/07/15 00:31:54;;;;;;;662.20;620.70;;;19.10;4.70;;;;;;5012027;28;20426;-68
2022/07/15 00:34:20;;;;;;;750.97;701.23;;;19.00;5.50;;;;;;5012355;28;20478;-67
2022/07/15 00:36:45;;;;;;;903.13;838.63;;;18.80;5.00;;;;;;5011797;28;20184;-68
2022/07/15 00:39:11;;;;;;;856.43;796.37;;;18.80;5.10;;;;;;5011538;28;20940;-68
2022/07/15 00:41:40;;;;;;;967.47;889.37;;;18.70;5.60;;;;;;5011789;28;20581;-67
2022/07/15 00:44:06;;;;;;;727.57;680.77;;;18.70;5.80;;;;;;5011979;28;20234;-67
2022/07/15 00:46:34;;;;;;;883.50;819.63;;;18.60;6.20;;;;;;5012210;28;20821;-68
2022/07/15 00:49:00;;;;;;;664.03;624.53;;;18.70;6.20;;;;;;5010508;28;20176;-67
2022/07/15 00:51:25;;;;;;;725.37;680.93;;;18.60;6.50;;;;;;5012244;28;20453;-67
2022/07/15 00:53:53;;;;;;;543.43;516.30;;;18.50;6.50;;;;;;5011888;28;20515;-67
2022/07/15 00:56:22;;;;;;;599.57;566.63;;;18.40;6.50;;;;;;5011899;28;20211;-67
2022/07/15 00:58:50;;;;;;;523.30;495.80;;;18.30;7.00;;;;;;5012307;28;20761;-68
2022/07/15 01:01:19;;;;;;;1014.83;934.87;;;18.20;6.30;;;;;;5011974;28;20524;-69
2022/07/15 01:03:50;;;;;;;920.20;852.17;;;18.10;6.30;;;;;;5012263;28;20406;-67
2022/07/15 01:06:15;;;;;;;780.63;724.73;;;18.20;6.60;;;;;;5012058;28;20425;-67
2022/07/15 01:08:41;;;;;;;940.20;870.43;;;18.20;6.30;;;;;;5011406;28;20414;-68
2022/07/15 01:11:07;;;;;;;982.73;906.23;;;18.10;6.80;;;;;;5011608;28;20680;-67
2022/07/15 01:13:32;;;;;;;606.07;574.07;;;18.10;6.80;;;;;;5011844;28;20176;-68
2022/07/15 01:15:58;;;;;;;954.63;883.57;;;18.00;6.60;;;;;;5011643;28;20185;-67
2022/07/15 01:18:24;;;;;;;914.33;845.90;;;18.00;7.20;;;;;;5011939;28;20176;-67
2022/07/15 01:20:49;;;;;;;835.83;778.33;;;18.00;7.40;;;;;;5015193;28;20584;-67
2022/07/15 01:23:15;;;;;;;633.47;599.47;;;17.90;7.70;;;;;;5015209;28;20178;-66
2022/07/15 01:25:46;;;;;;;658.10;619.43;;;17.90;7.80;;;;;;5014924;28;20187;-68
2022/07/15 01:28:12;;;;;;;730.77;687.83;;;17.90;8.00;;;;;;5014980;28;20951;-68
2022/07/15 01:30:38;;;;;;;700.47;655.47;;;18.00;7.90;;;;;;5013885;28;20467;-68
2022/07/15 01:33:04;;;;;;;715.87;672.30;;;18.00;8.10;;;;;;5014854;28;20450;-68
2022/07/15 01:35:30;;;;;;;750.17;702.10;;;17.90;8.20;;;;;;5015222;28;20433;-69
2022/07/15 01:37:55;;;;;;;937.57;870.80;;;17.90;8.20;;;;;;5014672;28;20180;-68
2022/07/15 01:40:21;;;;;;;562.67;534.00;;;17.90;8.20;;;;;;5014337;28;20212;-68
2022/07/15 01:42:47;;;;;;;835.10;778.00;;;17.90;8.20;;;;;;5014635;28;20202;-68
2022/07/15 01:45:13;;;;;;;843.83;783.23;;;17.80;8.80;;;;;;5014574;28;20183;-68
2022/07/15 01:47:43;;;;;;;829.80;774.17;;;17.80;8.80;;;;;;5014641;28;20183;-68
2022/07/15 01:50:09;;;;;;;710.87;666.93;;;17.80;8.90;;;;;;5014274;28;20440;-69
2022/07/15 01:52:35;;;;;;;1064.13;980.83;;;17.80;9.10;;;;;;5014577;28;20520;-68
2022/07/15 01:55:01;;;;;;;831.50;774.63;;;17.90;9.20;;;;;;5014732;28;20179;-68
2022/07/15 01:57:27;;;;;;;765.03;718.90;;;17.90;9.20;;;;;;5014515;28;20184;-68
2022/07/15 01:59:52;;;;;;;725.97;679.70;;;17.80;9.40;;;;;;5014056;28;20451;-68
2022/07/15 02:02:18;;;;;;;874.23;812.03;;;17.70;9.70;;;;;;5014703;28;20202;-68
2022/07/15 02:04:43;;;;;;;829.13;775.20;;;17.50;10.10;;;;;;5014333;28;20180;-68
2022/07/15 02:07:09;;;;;;;671.30;633.37;;;17.50;10.00;;;;;;5014115;28;20178;-68
2022/07/15 02:09:34;;;;;;;818.53;765.90;;;17.50;10.00;;;;;;5013561;28;20190;-68
2022/07/15 02:12:00;;;;;;;817.20;763.53;;;17.40;10.10;;;;;;5013926;28;20179;-68
2022/07/15 02:14:26;;;;;;;685.67;648.53;;;17.40;10.50;;;;;;5014818;28;20182;-68
2022/07/15 02:16:51;;;;;;;829.03;772.10;;;17.30;9.90;;;;;;5014099;28;20189;-68
2022/07/15 02:19:17;;;;;;;876.20;816.23;;;17.30;10.30;;;;;;5014073;28;20534;-68
2022/07/15 02:21:42;;;;;;;820.77;764.73;;;17.20;10.10;;;;;;5013903;28;20255;-68
2022/07/15 02:24:08;;;;;;;858.63;799.13;;;17.10;10.10;;;;;;5014511;28;20220;-68
2022/07/15 02:26:33;;;;;;;1040.67;962.17;;;17.00;11.20;;;;;;5013703;28;20593;-68
2022/07/15 02:29:00;;;;;;;716.60;671.17;;;17.00;10.80;;;;;;5013465;28;20223;-68
2022/07/15 02:31:26;;;;;;;807.47;755.23;;;16.80;11.20;;;;;;5012980;28;20255;-68
2022/07/15 02:33:51;;;;;;;957.57;884.20;;;16.80;11.30;;;;;;5013768;28;20424;-68
2022/07/15 02:36:17;;;;;;;718.03;676.90;;;16.80;11.30;;;;;;5013767;28;20195;-68
2022/07/15 02:38:42;;;;;;;535.40;509.03;;;16.70;11.20;;;;;;5013218;28;20212;-68
2022/07/15 02:41:09;;;;;;;625.37;589.10;;;16.70;11.20;;;;;;5013385;28;20300;-68
2022/07/15 02:43:36;;;;;;;714.23;673.17;;;16.60;11.50;;;;;;5013599;28;20173;-68
2022/07/15 02:46:01;;;;;;;726.63;684.97;;;16.60;11.30;;;;;;5013745;28;20501;-68
2022/07/15 02:48:27;;;;;;;565.07;535.50;;;16.60;11.40;;;;;;5013264;28;20439;-67
2022/07/15 02:50:53;;;;;;;716.90;668.20;;;16.40;11.90;;;;;;5013327;28;20280;-67
2022/07/15 02:53:20;;;;;;;869.43;807.20;;;16.40;12.10;;;;;;5013726;28;20425;-68
2022/07/15 02:55:47;;;;;;;854.13;794.37;;;16.50;12.10;;;;;;5013931;28;20174;-67
2022/07/15 02:58:13;;;;;;;605.03;568.57;;;16.50;11.90;;;;;;5011581;28;20431;-68
2022/07/15 03:00:38;;;;;;;875.30;812.37;;;16.50;11.90;;;;;;5013036;28;20472;-68
2022/07/15 03:03:04;;;;;;;697.00;653.73;;;16.40;11.50;;;;;;5013477;28;20174;-68
2022/07/15 03:05:30;;;;;;;884.67;822.90;;;16.40;11.50;;;;;;5013261;28;20170;-67
2022/07/15 03:07:55;;;;;;;869.30;807.60;;;16.40;11.70;;;;;;5011652;28;20714;-67
2022/07/15 03:10:21;;;;;;;624.63;588.63;;;16.30;11.50;;;;;;5012930;28;20753;-69
2022/07/15 03:12:47;;;;;;;724.67;680.67;;;16.30;11.60;;;;;;5013020;28;20173;-68
2022/07/15 03:15:12;;;;;;;688.43;646.93;;;16.30;11.80;;;;;;5013215;28;20659;-67
2022/07/15 03:17:39;;;;;;;712.63;668.77;;;16.20;11.60;;;;;;5013125;28;20212;-68
2022/07/15 03:20:06;;;;;;;691.37;648.90;;;16.20;11.90;;;;;;5013143;28;20239;-68
2022/07/15 03:22:33;;;;;;;709.87;668.57;;;16.20;11.80;;;;;;5013039;28;20467;-72
2022/07/15 03:24:58;;;;;;;607.30;571.33;;;16.10;11.70;;;;;;5012830;28;20435;-68
2022/07/15 03:27:24;;;;;;;603.87;568.57;;;16.00;11.70;;;;;;5012849;28;20905;-68
2022/07/15 03:29:50;;;;;;;661.70;625.73;;;16.10;11.40;;;;;;5012443;28;20200;-68
2022/07/15 03:32:15;;;;;;;637.90;602.77;;;16.10;11.50;;;;;;5012811;28;20187;-68
2022/07/15 03:34:43;;;;;;;695.07;653.80;;;15.90;11.80;;;;;;5012942;28;20552;-68
2022/07/15 03:37:08;;;;;;;718.57;674.93;;;15.80;12.10;;;;;;5012858;28;20694;-67
2022/07/15 03:42:02;;;;;;;904.30;840.53;;;16.00;12.30;;;;;;5012858;23;20643;-66
2022/07/15 03:44:28;;;;;;;724.87;682.13;;;15.90;12.10;;;;;;4992940;28;20417;-70
2022/07/15 03:46:53;;;;;;;782.10;731.03;;;15.90;11.90;;;;;;4991547;28;20664;-70
2022/07/15 03:49:19;;;;;;;713.37;671.30;;;16.00;11.50;;;;;;4992621;28;20656;-69
2022/07/15 03:51:45;;;;;;;677.27;638.80;;;15.90;11.60;;;;;;4992544;28;20292;-69
2022/07/15 03:54:10;;;;;;;718.40;675.47;;;15.90;11.70;;;;;;4992918;28;20264;-69
2022/07/15 03:56:36;;;;;;;644.53;606.27;;;15.90;11.70;;;;;;4992837;28;20545;-70
2022/07/15 03:59:02;;;;;;;606.50;573.10;;;15.90;12.20;;;;;;4992484;28;20558;-70
2022/07/15 04:01:28;;;;;;;681.17;640.90;;;15.90;12.20;;;;;;4992719;28;20464;-69
2022/07/15 04:03:54;;;;;;;657.73;619.47;;;16.00;12.20;;;;;;4992769;28;20540;-71
2022/07/15 04:06:20;;;;;;;723.83;679.13;;;16.00;11.80;;;;;;4993122;28;20186;-70
2022/07/15 04:08:47;;;;;;;635.17;598.07;;;16.20;11.40;;;;;;4991074;28;20647;-70
2022/07/15 04:11:13;;;;;;;705.57;662.77;;;16.20;11.70;;;;;;4992728;28;20902;-70
2022/07/15 04:13:39;;;;;;;575.83;543.60;;;16.20;11.20;;;;;;4992922;28;20421;-71
2022/07/15 04:16:06;;;;;;;621.03;587.77;;;16.30;10.90;;;;;;4992646;28;20927;-71
2022/07/15 04:18:32;;;;;;;626.83;592.70;;;16.30;10.80;;;;;;4992534;28;20568;-70
2022/07/15 04:20:58;;;;;;;646.30;609.97;;;16.30;10.80;;;;;;4992447;28;20519;-70
2022/07/15 04:23:24;;;;;;;609.93;577.70;;;16.30;10.70;;;;;;4992786;28;20503;-70
2022/07/15 04:25:53;;;;;;;710.30;667.67;;;16.30;10.60;;;;;;4991394;28;20183;-70
2022/07/15 04:28:23;;;;;;;798.40;747.20;;;16.30;11.00;;;;;;4992242;28;20812;-70
2022/07/15 04:30:49;;;;;;;644.10;608.70;;;16.30;11.30;;;;;;4992707;28;20434;-70
2022/07/15 04:33:15;;;;;;;733.60;689.03;;;16.20;11.50;;;;;;4992513;28;20422;-69
2022/07/15 04:35:41;;;;;;;666.87;628.60;;;16.30;11.70;;;;;;4992523;28;20423;-70
2022/07/15 04:38:07;;;;;;;580.00;550.07;;;16.40;11.20;;;;;;4992183;28;20520;-68
2022/07/15 04:40:33;;;;;;;680.13;641.33;;;16.40;11.20;;;;;;4992282;28;21054;-70
2022/07/15 04:42:59;;;;;;;607.03;573.30;;;16.50;11.40;;;;;;4992594;28;20418;-71
2022/07/15 04:45:28;;;;;;;647.13;609.37;;;16.60;10.70;;;;;;4991153;28;20783;-71
2022/07/15 04:47:54;;;;;;;648.97;612.63;;;16.80;10.50;;;;;;4992138;28;20274;-69
2022/07/15 04:53:04;;;;;;;577.67;546.73;;;17.10;10.10;;;;;;4992394;28;20465;-72
2022/07/15 04:55:30;;;;;;;632.60;596.50;;;17.30;10.00;;;;;;4996162;28;20415;-69
2022/07/15 04:57:56;;;;;;;832.33;779.90;;;17.40;9.70;;;;;;4994318;28;20183;-71
2022/07/15 05:00:22;;;;;;;540.87;513.63;;;17.60;9.00;;;;;;4995597;28;20430;-69
2022/07/15 05:02:47;;;;;;;634.40;597.67;;;17.70;9.10;;;;;;4995629;28;20463;-69
2022/07/15 05:05:13;;;;;;;640.30;604.23;;;;;;;;;;4995848;28;20180;-70
2022/07/15 05:07:39;;;;;;;658.87;615.83;;;19.70;7.50;;;;;;4995846;28;20183;-70
2022/07/15 05:10:06;;;;;;;445.97;420.00;;;21.10;4.90;;;;;;4993903;28;21024;-71
2022/07/15 05:12:31;;;;;;;596.43;557.73;;;22.40;3.30;;;;;;4995808;28;20226;-71
2022/07/15 05:14:57;;;;;;;683.80;636.67;;;;;;;;;;4995572;28;20506;-72
2022/07/15 05:17:23;;;;;;;690.40;641.70;;;24.60;1.00;;;;;;4995560;28;20608;-71
2022/07/15 05:19:48;;;;;;;829.47;762.43;;;25.40;1.00;;;;;;4995088;28;20415;-71
2022/07/15 05:22:16;;;;;;;854.20;784.23;;;26.30;1.00;;;;;;4995391;28;20219;-70
2022/07/15 05:24:41;;;;;;;898.90;823.33;;;26.80;1.00;;;;;;4995620;28;20180;-71
2022/07/15 05:27:07;;;;;;;873.73;801.43;;;;;;;;;;4995336;28;20435;-71
2022/07/15 05:29:33;;;;;;;882.03;809.90;;;28.40;1.00;;;;;;4995019;28;20177;-72
2022/07/15 05:31:58;;;;;;;988.80;893.13;;;28.20;1.00;;;;;;4995109;28;20509;-70
2022/07/15 05:34:24;;;;;;;915.60;837.13;;;27.30;1.00;;;;;;4995123;28;20730;-70
2022/07/15 05:36:50;;;;;;;831.20;762.57;;;26.90;1.00;;;;;;4995300;28;20180;-71
2022/07/15 05:39:15;;;;;;;873.77;794.77;;;26.90;1.00;;;;;;4994909;28;20204;-72
2022/07/15 05:41:41;;;;;;;933.87;847.73;;;27.40;1.00;;;;;;4994915;28;20243;-72
2022/07/15 05:44:07;;;;;;;1006.93;908.27;;;28.00;1.00;;;;;;4995183;28;20181;-70
2022/07/15 05:46:32;;;;;;;951.70;864.73;;;28.50;1.00;;;;;;4995007;28;20215;-71
2022/07/15 05:48:58;;;;;;;936.43;850.83;;;29.10;1.00;;;;;;4993486;28;20971;-71
2022/07/15 05:51:23;;;;;;;903.73;826.73;;;29.80;1.00;;;;;;4994936;28;20203;-71
2022/07/15 05:53:49;;;;;;;904.17;829.10;;;30.40;1.00;;;;;;4994969;28;20184;-71
2022/07/15 05:56:15;;;;;;;970.90;890.20;;;31.20;1.00;;;;;;4994924;28;20180;-72
2022/07/15 05:58:40;;;;;;;1043.43;938.50;;;32.00;1.00;;;;;;4994612;28;20196;-70
2022/07/15 06:01:06;;;;;;;996.00;901.90;;;32.60;1.00;;;;;;4994647;28;20215;-69
2022/07/15 06:03:32;;;;;;;936.50;856.47;;;33.10;1.00;;;;;;4994675;28;20180;-72
2022/07/15 06:05:58;;;;;;;994.57;904.97;;;33.90;1.00;;;;;;4994577;28;20195;-72
2022/07/15 06:08:23;;;;;;;927.67;848.13;;;34.60;1.00;;;;;;4994186;28;20423;-72
2022/07/15 06:10:49;;;;;;;957.30;875.50;;;34.90;1.00;;;;;;4994731;28;20214;-73
2022/07/15 06:13:15;;;;;;;978.80;892.30;;;35.30;1.00;;;;;;4994348;28;20211;-70
2022/07/15 06:15:40;;;;;;;958.63;873.60;;;35.80;1.00;;;;;;4994634;28;20219;-71
2022/07/15 06:18:06;;;;;;;1033.13;933.17;;;36.20;1.00;;;;;;4994294;28;20184;-72
2022/07/15 06:20:32;;;;;;;966.10;882.50;;;36.30;1.00;;;;;;4994382;28;20207;-70
2022/07/15 06:22:57;;;;;;;1065.27;958.47;;;36.60;1.00;;;;;;4994552;28;20176;-72
2022/07/15 06:25:23;;;;;;;983.60;891.90;;;37.00;1.00;;;;;;4994515;28;20439;-70
2022/07/15 06:27:49;;;;;;;987.27;894.77;;;37.30;1.00;;;;;;4994423;28;20212;-71
2022/07/15 06:30:15;;;;;;;1087.47;968.30;;;37.50;1.00;;;;;;4994039;28;20574;-71
2022/07/15 06:32:41;;;;;;;1087.33;944.83;;;37.40;1.00;;;;;;4994370;28;20187;-71
2022/07/15 06:35:06;;;;;;;1128.50;983.67;;;37.40;1.00;;;;;;4994397;28;20420;-72
2022/07/15 06:37:32;;;;;;;1042.43;941.97;;;37.50;1.00;;;;;;4994453;28;20192;-72
2022/07/15 06:39:58;;;;;;;1049.20;943.50;;;37.30;1.00;;;;;;4993606;28;20509;-71
2022/07/15 06:42:24;;;;;;;1047.93;934.67;;;37.20;1.00;;;;;;4994158;28;20212;-72
2022/07/15 06:44:50;;;;;;;963.60;867.67;;;36.00;1.00;;;;;;4994130;28;21004;-70
2022/07/15 06:47:15;;;;;;;958.47;876.23;;;33.90;1.00;;;;;;4994051;28;20558;-72
2022/07/15 06:49:41;;;;;;;899.83;824.10;;;33.20;1.00;;;;;;4993684;28;20181;-69
2022/07/15 06:52:07;;;;;;;948.93;865.67;;;32.70;1.00;;;;;;4992765;28;20589;-70
2022/07/15 06:54:32;;;;;;;965.43;881.93;;;30.90;1.00;;;;;;4994069;28;20187;-71
2022/07/15 06:56:59;;;;;;;955.53;870.33;;;30.60;1.00;;;;;;4994014;28;20235;-69
2022/07/15 06:59:25;;;;;;;941.60;861.53;;;30.50;1.00;;;;;;4993521;28;20192;-70
2022/07/15 07:01:51;;;;;;;983.90;889.07;;;28.90;1.00;;;;;;4994016;28;20468;-69
2022/07/15 07:04:17;;;;;;;952.17;869.03;;;26.10;1.00;;;;;;4993983;28;20420;-70
2022/07/15 07:06:43;;;;;;;833.30;767.07;;;24.60;1.00;;;;;;4993738;28;20415;-69
2022/07/15 07:09:09;;;;;;;871.20;799.70;;;24.00;1.00;;;;;;4993647;28;20643;-70
2022/07/15 07:11:34;;;;;;;854.87;787.33;;;25.00;1.00;;;;;;4994006;28;20192;-69
2022/07/15 07:14:00;;;;;;;935.27;855.00;;;26.00;1.00;;;;;;4994096;28;20188;-69
2022/07/15 07:16:26;;;;;;;927.97;856.17;;;26.20;1.00;;;;;;4983860;28;20950;-69
2022/07/15 07:18:52;;;;;;;884.00;814.90;;;27.40;1.00;;;;;;4973153;28;20190;-71
2022/07/15 07:21:19;;;;;;;938.40;852.23;;;29.30;1.00;;;;;;4973671;28;20209;-71
2022/07/15 07:23:45;;;;;;;927.37;852.77;;;29.80;1.00;;;;;;4973554;28;20178;-69
2022/07/15 07:26:17;;;;;;;937.90;851.00;;;29.00;1.00;;;;;;4973851;28;20413;-73
2022/07/15 07:28:46;;;;;;;1191.73;999.90;;;28.20;1.00;;;;;;4973752;28;20416;-72
2022/07/15 07:31:13;;;;;;;882.30;808.50;;;29.20;1.00;;;;;;4973506;28;20796;-73
2022/07/15 07:33:39;;;;;;;1025.63;919.37;;;29.10;1.00;;;;;;4973785;28;20413;-71
2022/07/15 07:36:06;;;;;;;928.77;847.53;;;29.90;1.00;;;;;;4974002;28;20448;-70
2022/07/15 07:38:33;;;;;;;1386.93;999.90;;;30.90;1.00;;;;;;4973414;28;20420;-70
2022/07/15 07:40:58;;;;;;;916.27;830.77;;;30.70;1.00;;;;;;4973576;28;21017;-70
2022/07/15 07:43:24;;;;;;;982.10;890.97;;;30.60;1.00;;;;;;4973396;28;20424;-72
2022/07/15 07:45:59;;;;;;;981.07;891.33;;;31.40;1.00;;;;;;4973708;28;20192;-71
2022/07/15 07:48:25;;;;;;;937.13;847.80;;;29.70;1.00;;;;;;4972341;28;20424;-73
2022/07/15 07:50:53;;;;;;;1092.43;958.03;;;30.60;1.00;;;;;;4973834;28;20491;-70
2022/07/15 07:53:24;;;;;;;1378.63;999.90;;;30.90;1.00;;;;;;4973768;28;20173;-72
2022/07/15 07:55:50;;;;;;;1024.47;925.67;;;31.20;1.00;;;;;;4973802;28;20428;-69
2022/07/15 07:58:17;;;;;;;1037.13;932.17;;;30.90;1.00;;;;;;4973736;28;20821;-69
2022/07/15 08:00:44;;;;;;;1025.17;924.47;;;31.20;1.00;;;;;;4973826;28;20469;-69
2022/07/15 08:03:15;;;;;;;933.77;852.57;;;32.50;1.00;;;;;;4974039;28;20413;-69
2022/07/15 08:05:41;;;;;;;1073.50;959.70;;;30.40;1.00;;;;;;4972616;28;20869;-69
2022/07/15 08:08:17;;;;;;;1068.87;957.57;;;29.40;1.00;;;;;;4973365;28;20491;-69
2022/07/15 08:10:46;;;;;;;994.93;901.97;;;30.20;1.00;;;;;;4974511;28;20201;-69
2022/07/15 08:13:12;;;;;;;984.87;894.73;;;28.60;1.00;;;;;;4974801;28;20516;-68
2022/07/15 08:15:39;;;;;;;969.67;884.00;;;29.50;1.00;;;;;;4977291;28;20443;-67
2022/07/15 08:18:05;;;;;;;1103.20;984.83;;;28.90;1.00;;;;;;4973533;28;20945;-67
2022/07/15 08:20:31;;;;;;;1020.37;917.20;;;29.40;1.00;;;;;;4974207;28;20443;-68
2022/07/15 08:22:58;;;;;;;1104.43;983.77;;;29.50;1.00;;;;;;4990137;28;20956;-68
2022/07/15 08:25:29;;;;;;;931.30;852.43;;;29.10;1.00;;;;;;4989261;28;20519;-69
2022/07/15 08:27:56;;;;;;;931.37;848.70;;;28.60;1.00;;;;;;4988785;28;20775;-68
2022/07/15 08:30:23;;;;;;;904.23;832.10;;;28.60;1.00;;;;;;4992253;28;20867;-68
2022/07/15 08:32:48;;;;;;;957.53;866.83;;;28.20;1.00;;;;;;4992322;28;20423;-67
2022/07/15 08:35:14;;;;;;;956.03;857.33;;;28.80;1.00;;;;;;4992547;28;20863;-68
2022/07/15 08:37:40;;;;;;;855.10;789.77;;;27.90;1.00;;;;;;4992649;28;20189;-68
2022/07/15 08:40:08;;;;;;;1058.37;954.27;;;26.90;1.00;;;;;;4993073;28;20200;-69
2022/07/15 08:42:35;;;;;;;948.60;860.03;;;27.60;1.00;;;;;;4993142;28;20208;-69
2022/07/15 08:45:01;;;;;;;877.90;811.33;;;27.60;1.00;;;;;;4991940;28;20812;-68
2022/07/15 08:47:31;;;;;;;1026.00;914.73;;;27.50;1.00;;;;;;4993384;28;20408;-70
2022/07/15 08:49:57;;;;;;;1293.70;999.90;;;27.70;1.00;;;;;;4991296;28;20435;-69
2022/07/15 08:52:24;;;;;;;1236.60;999.90;;;27.80;1.00;;;;;;4992792;28;20419;-69
2022/07/15 08:54:51;;;;;;;855.87;794.23;;;27.70;1.00;;;;;;4992123;28;20845;-68
2022/07/15 08:57:17;;;;;;;1047.43;941.10;;;27.80;1.00;;;;;;4992297;28;20458;-68
2022/07/15 08:59:45;;;;;;;951.10;865.43;;;27.60;1.00;;;;;;4991785;28;20447;-68
2022/07/15 09:02:12;;;;;;;961.60;879.33;;;27.80;1.00;;;;;;4991346;28;20459;-70
2022/07/15 09:05:16;;;;;;;954.40;875.90;;;27.60;1.00;;;;;;4992245;28;20473;-69
2022/07/15 09:07:54;;;;;;;742.40;686.07;;;27.70;1.00;;;;;;4992459;28;20509;-67
2022/07/15 09:10:22;;;;;;;893.13;819.43;;;26.90;1.00;;;;;;4991905;28;20489;-68
2022/07/15 09:12:52;;;;;;;929.10;848.50;;;25.70;1.00;;;;;;4993011;28;20423;-69
2022/07/15 09:15:32;;;;;;;917.93;838.10;;;25.80;1.00;;;;;;4992736;28;20442;-69
2022/07/15 09:18:09;;;;;;;1013.67;912.50;;;26.00;1.00;;;;;;4991707;28;20506;-69
2022/07/15 09:20:35;;;;;;;953.80;864.83;;;26.10;1.00;;;;;;4991879;28;20435;-69
2022/07/15 09:23:01;;;;;;;1028.87;924.87;;;26.20;1.00;;;;;;4991734;28;20527;-68
2022/07/15 09:25:28;;;;;;;755.57;703.50;;;26.10;1.00;;;;;;4992743;28;20447;-68
2022/07/15 09:27:54;;;;;;;845.70;776.53;;;25.70;1.00;;;;;;4990979;28;20463;-68
2022/07/15 09:33:36;;;;;;;838.63;778.10;;;25.60;1.00;;;;;;4992310;28;20187;-67
2022/07/15 09:36:11;;;;;;;827.60;769.10;;;25.60;1.00;;;;;;4982146;28;20435;-67
2022/07/15 09:38:48;;;;;;;1026.13;924.40;;;25.70;1.00;;;;;;4990839;28;20427;-68
2022/07/15 09:41:25;;;;;;;927.30;846.20;;;25.80;1.00;;;;;;4987029;28;20470;-66
2022/07/15 09:44:01;;;;;;;831.73;769.73;;;25.50;1.00;;;;;;4995370;28;20514;-68
2022/07/15 09:46:49;;;;;;;806.57;749.87;;;25.60;1.00;;;;;;4994006;28;20513;-68
2022/07/15 09:49:35;;;;;;;1037.13;937.87;;;25.60;1.00;;;;;;5010447;28;20415;-69
2022/07/15 09:52:08;;;;;;;838.70;778.97;;;25.40;1.00;;;;;;5003036;28;20451;-66
2022/07/15 09:54:36;;;;;;;923.63;849.23;;;25.70;1.00;;;;;;4992937;28;20428;-68
2022/07/15 09:57:04;;;;;;;931.30;854.43;;;25.70;1.00;;;;;;4995272;28;20470;-67
2022/07/15 09:59:30;;;;;;;847.50;786.33;;;25.30;1.00;;;;;;5005182;28;20513;-69
2022/07/15 10:01:57;;;;;;;894.57;816.37;;;25.30;1.00;;;;;;5014805;28;20458;-66
2022/07/15 10:04:25;;;;;;;880.80;813.13;;;25.20;1.00;;;;;;5014848;28;20411;-69
2022/07/15 10:06:52;;;;;;;1070.83;960.93;;;25.30;1.00;;;;;;5014746;28;20430;-69
2022/07/15 10:09:27;;;;;;;877.47;804.30;;;25.30;1.00;;;;;;5014639;28;20419;-68
2022/07/15 10:11:54;;;;;;;836.43;773.47;;;25.60;1.00;;;;;;5014613;28;20447;-69
2022/07/15 10:14:57;;;;;;;886.00;807.67;;;25.50;1.00;;;;;;5014750;28;20549;-71
2022/07/15 10:17:50;;;;;;;878.90;799.60;;;25.70;1.00;;;;;;5014616;28;20449;-66
2022/07/15 10:20:27;;;;;;;916.63;832.70;;;25.40;1.00;;;;;;5001974;28;20475;-68
2022/07/15 10:23:18;;;;;;;884.37;808.33;;;25.50;1.00;;;;;;4995570;28;20558;-70
2022/07/15 10:26:20;;;;;;;854.90;790.07;;;25.40;1.00;;;;;;4995064;28;20910;-71
2022/07/15 10:28:58;;;;;;;920.30;843.27;;;25.30;1.00;;;;;;4971379;28;20791;-68
2022/07/15 10:31:27;;;;;;;957.93;874.90;;;25.50;1.00;;;;;;4974200;28;20823;-71
2022/07/15 10:34:04;;;;;;;914.93;839.63;;;25.70;1.00;;;;;;4986208;28;20428;-69
2022/07/15 10:37:06;;;;;;;963.67;876.53;;;25.90;1.00;;;;;;4995296;28;20987;-72
2022/07/15 10:39:53;;;;;;;1080.40;970.30;;;25.90;1.00;;;;;;4983387;28;20898;-70
2022/07/15 10:42:20;;;;;;;977.43;891.13;;;26.20;1.00;;;;;;4994710;28;20482;-69
2022/07/15 10:45:06;;;;;;;860.77;796.27;;;26.40;1.00;;;;;;4994530;28;20419;-70
2022/07/15 10:47:32;;;;;;;908.37;832.80;;;26.30;1.00;;;;;;4980627;28;20933;-67
2022/07/15 10:49:58;;;;;;;844.73;778.27;;;26.30;1.00;;;;;;4993764;28;20564;-67
2022/07/15 10:52:30;;;;;;;893.50;822.57;;;26.30;1.00;;;;;;4992992;28;20431;-68
2022/07/15 10:54:55;;;;;;;804.53;744.07;;;26.30;1.00;;;;;;4992454;28;20192;-66
2022/07/15 10:57:41;;;;;;;876.20;805.17;;;26.30;1.00;;;;;;4994072;28;20515;-67
2022/07/15 11:00:16;;;;;;;863.93;793.73;;;;;;;;;;4993680;28;20299;-68
2022/07/15 11:03:04;;;;;;;945.20;862.37;;;26.00;1.00;;;;;;4992925;28;20820;-68
2022/07/15 11:05:30;;;;;;;890.77;821.07;;;26.10;1.00;;;;;;4994304;28;20785;-68
2022/07/15 11:07:56;;;;;;;845.47;782.03;;;26.20;1.00;;;;;;4994034;28;20427;-68
2022/07/15 11:10:22;;;;;;;839.77;773.13;;;26.30;1.00;;;;;;4992917;28;20220;-67
2022/07/15 11:12:50;;;;;;;885.50;811.77;;;26.10;1.00;;;;;;4991827;28;20180;-68
2022/07/15 11:15:23;;;;;;;910.07;832.50;;;26.10;1.00;;;;;;4992748;28;20435;-68
2022/07/15 11:17:51;;;;;;;845.93;778.67;;;25.70;1.00;;;;;;4992972;28;20435;-68
2022/07/15 11:20:20;;;;;;;942.87;857.73;;;25.50;1.00;;;;;;4992921;28;21022;-66
2022/07/15 11:22:48;;;;;;;918.47;839.03;;;25.80;1.00;;;;;;4992064;28;20470;-71
2022/07/15 11:25:24;;;;;;;874.27;798.70;;;25.80;1.00;;;;;;4989727;28;20464;-68
2022/07/15 11:28:00;;;;;;;873.47;796.83;;;25.70;1.00;;;;;;4992680;28;22194;-67
2022/07/15 11:30:28;;;;;;;863.63;793.47;;;25.60;1.00;;;;;;4992642;28;20447;-67
2022/07/15 11:32:57;;;;;;;771.57;712.13;;;25.40;1.00;;;;;;4992709;28;20519;-67
2022/07/15 11:35:23;;;;;;;1196.70;999.90;;;24.90;1.00;;;;;;4991962;28;20515;-66
2022/07/15 11:37:58;;;;;;;891.37;813.83;;;25.10;1.00;;;;;;4991309;28;20419;-70
2022/07/15 11:45:58;;;;;;;828.43;765.43;;;26.10;1.00;;;;;;4994003;28;20442;-69
2022/07/15 11:48:24;;;;;;;819.33;758.63;;;25.70;1.00;;;;;;4993006;28;20443;-68
2022/07/15 11:50:55;;;;;;;893.13;816.57;;;26.10;1.00;;;;;;4993132;28;20287;-67
2022/07/15 11:53:21;;;;;;;846.17;774.57;;;26.30;1.00;;;;;;4992823;28;20185;-68
2022/07/15 11:55:48;;;;;;;986.23;891.23;;;26.30;1.00;;;;;;4992946;28;20424;-68
2022/07/15 11:58:14;;;;;;;892.73;817.50;;;26.30;1.00;;;;;;4992481;28;20418;-68
2022/07/15 12:00:46;;;;;;;1075.07;969.80;;;26.60;1.00;;;;;;4992933;28;20428;-69
2022/07/15 12:03:11;;;;;;;819.23;757.43;;;27.00;1.00;;;;;;4993175;28;20176;-71
2022/07/15 12:05:37;;;;;;;849.60;777.57;;;27.10;1.00;;;;;;4993415;28;20419;-71
2022/07/15 12:08:04;;;;;;;915.53;836.20;;;26.60;1.00;;;;;;4985508;28;20669;-69
2022/07/15 12:10:37;;;;;;;885.57;811.03;;;26.20;1.00;;;;;;4973133;28;20209;-68
2022/07/15 12:13:04;;;;;;;823.67;756.03;;;26.40;1.00;;;;;;4981965;28;20807;-69
2022/07/15 12:15:33;;;;;;;1012.03;914.70;;;26.40;1.00;;;;;;4992853;28;20446;-68
2022/07/15 12:18:01;;;;;;;836.27;771.57;;;26.20;1.00;;;;;;4992562;28;20432;-68
2022/07/15 12:20:26;;;;;;;973.67;880.27;;;26.00;1.00;;;;;;4992584;28;20439;-68
2022/07/15 12:23:03;;;;;;;809.07;747.23;;;26.00;1.00;;;;;;4992204;28;20490;-68
2022/07/15 12:25:28;;;;;;;1063.17;950.73;;;26.20;1.00;;;;;;4992198;28;20223;-69
2022/07/15 12:27:54;;;;;;;900.10;820.53;;;26.30;1.00;;;;;;4992307;28;20925;-69
2022/07/15 12:30:37;;;;;;;972.67;875.60;;;25.80;1.00;;;;;;4992258;28;20510;-69
2022/07/15 12:33:35;;;;;;;887.37;808.30;;;25.80;1.00;;;;;;4992128;28;20184;-68
2022/07/15 12:36:16;;;;;;;856.50;783.53;;;25.70;1.00;;;;;;4987221;28;20466;-68
2022/07/15 12:38:42;;;;;;;807.50;739.47;;;25.90;1.00;;;;;;4991909;28;20462;-68